createdAt,value
2022-12-03T00:01:30.532Z,33.60
2022-12-03T00:04:00.162Z,34.22
2022-12-03T00:06:34.335Z,34.45
2022-12-03T00:09:06.189Z,33.79
2022-12-03T00:11:35.875Z,33.51
2022-12-03T00:14:04.391Z,33.33
2022-12-03T00:16:34.365Z,33.31
2022-12-03T00:19:04.112Z,33.35
2022-12-03T00:21:32.371Z,33.22
2022-12-03T00:24:01.538Z,33.20
2022-12-03T00:26:30.054Z,33.18
2022-12-03T00:29:00.213Z,33.14
2022-12-03T00:31:30.032Z,33.09
2022-12-03T00:34:01.572Z,32.97
2022-12-03T00:36:31.373Z,33.09
2022-12-03T00:39:00.983Z,32.92
2022-12-03T00:41:30.315Z,32.90
2022-12-03T00:44:00.185Z,32.89
2022-12-03T00:46:30.209Z,32.81
2022-12-03T00:49:00.097Z,32.77
2022-12-03T00:51:30.597Z,32.78
2022-12-03T00:54:00.138Z,32.80
2022-12-03T00:56:30.340Z,32.75
2022-12-03T00:59:01.260Z,32.74
2022-12-03T01:01:30.452Z,32.72
2022-12-03T01:04:00.650Z,32.70
2022-12-03T01:06:30.542Z,32.70
2022-12-03T01:09:00.233Z,32.72
2022-12-03T01:11:39.957Z,32.69
2022-12-03T01:14:20.103Z,32.81
2022-12-03T01:16:50.028Z,32.72
2022-12-03T01:19:20.634Z,32.73
2022-12-03T01:21:52.770Z,32.68
2022-12-03T01:24:22.544Z,32.66
2022-12-03T01:26:52.140Z,32.67
2022-12-03T01:29:21.348Z,33.10
2022-12-03T01:32:08.948Z,32.82
2022-12-03T01:34:38.350Z,33.20
2022-12-03T01:37:07.530Z,33.48
2022-12-03T01:39:37.642Z,33.08
2022-12-03T01:42:08.246Z,33.34
2022-12-03T01:44:40.149Z,33.09
2022-12-03T01:47:18.343Z,33.12
2022-12-03T01:49:53.996Z,33.62
2022-12-03T01:52:31.746Z,33.38
2022-12-03T01:55:04.531Z,33.44
2022-12-03T01:57:42.865Z,33.35
2022-12-03T02:00:20.330Z,33.40
2022-12-03T02:02:58.338Z,33.43
2022-12-03T02:05:34.016Z,33.43
2022-12-03T02:08:29.702Z,33.68
2022-12-03T02:11:06.501Z,33.64
2022-12-03T02:13:37.592Z,33.69
2022-12-03T02:16:06.496Z,33.64
2022-12-03T02:18:36.254Z,34.28
2022-12-03T02:21:18.076Z,34.22
2022-12-03T02:24:11.755Z,34.00
2022-12-03T02:26:40.561Z,34.00
2022-12-03T02:29:12.439Z,33.99
2022-12-03T02:31:42.278Z,34.10
2022-12-03T02:34:12.676Z,34.01
2022-12-03T02:36:42.546Z,34.01
2022-12-03T02:39:12.285Z,34.02
2022-12-03T02:41:59.466Z,34.02
2022-12-03T02:44:30.504Z,34.10
2022-12-03T02:47:02.896Z,34.09
2022-12-03T02:49:32.888Z,34.12
2022-12-03T02:52:02.654Z,34.19
2022-12-03T02:54:30.953Z,34.17
2022-12-03T02:57:01.539Z,34.52
2022-12-03T02:59:32.406Z,34.35
2022-12-03T03:02:02.630Z,34.34
2022-12-03T03:04:31.344Z,34.29
2022-12-03T03:07:00.768Z,34.29
2022-12-03T03:09:30.842Z,34.31
2022-12-03T03:12:00.393Z,34.35
2022-12-03T03:14:29.764Z,34.28
2022-12-03T03:17:00.532Z,34.27
2022-12-03T03:19:30.296Z,34.30
2022-12-03T03:22:01.098Z,34.33
2022-12-03T03:24:32.853Z,34.35
2022-12-03T03:27:02.504Z,34.37
2022-12-03T03:29:33.574Z,34.33
2022-12-03T03:32:06.080Z,34.35
2022-12-03T03:34:34.684Z,34.39
2022-12-03T03:37:03.496Z,34.44
2022-12-03T03:39:33.705Z,34.53
2022-12-03T03:42:05.941Z,34.44
2022-12-03T03:44:34.688Z,34.36
2022-12-03T03:47:04.310Z,34.56
2022-12-03T03:49:33.511Z,34.37
2022-12-03T03:52:02.586Z,34.59
2022-12-03T03:54:32.862Z,34.50
2022-12-03T03:57:02.468Z,34.49
2022-12-03T03:59:31.115Z,34.45
2022-12-03T04:02:01.336Z,34.48
2022-12-03T04:04:34.189Z,34.57
2022-12-03T04:07:04.385Z,34.58
2022-12-03T04:09:33.700Z,34.49
2022-12-03T04:12:21.944Z,34.45
2022-12-03T04:14:50.579Z,34.49
2022-12-03T04:17:20.649Z,34.40
2022-12-03T04:19:49.566Z,34.38
2022-12-03T04:22:37.545Z,34.37
2022-12-03T04:25:26.038Z,34.50
2022-12-03T04:28:14.734Z,34.55
2022-12-03T04:30:44.670Z,34.59
2022-12-03T04:33:32.169Z,34.51
2022-12-03T04:36:01.614Z,34.57
2022-12-03T04:38:30.555Z,34.51
2022-12-03T04:41:06.696Z,34.53
2022-12-03T04:43:57.808Z,34.57
2022-12-03T04:46:28.057Z,34.66
2022-12-03T04:48:57.566Z,34.60
2022-12-03T04:51:28.460Z,34.58
2022-12-03T04:54:00.704Z,34.55
2022-12-03T04:56:30.700Z,34.63
2022-12-03T04:59:01.824Z,34.66
2022-12-03T05:01:30.622Z,34.68
2022-12-03T05:04:00.620Z,34.73
2022-12-03T05:06:29.926Z,34.72
2022-12-03T05:09:00.226Z,34.90
2022-12-03T05:11:30.573Z,34.77
2022-12-03T05:14:00.556Z,34.77
2022-12-03T05:16:30.657Z,34.80
2022-12-03T05:19:01.680Z,34.81
2022-12-03T05:21:30.733Z,34.88
2022-12-03T05:24:03.898Z,35.30
2022-12-03T05:26:33.672Z,34.95
2022-12-03T05:29:04.266Z,35.01
2022-12-03T05:31:36.221Z,35.03
2022-12-03T05:34:06.552Z,35.03
2022-12-03T05:36:36.728Z,35.28
2022-12-03T05:39:06.384Z,35.11
2022-12-03T05:41:53.652Z,35.63
2022-12-03T05:44:23.094Z,35.93
2022-12-03T05:46:52.539Z,35.89
2022-12-03T05:49:22.054Z,35.88
2022-12-03T05:51:53.768Z,35.94
2022-12-03T05:54:30.082Z,35.81
2022-12-03T05:57:00.766Z,35.28
2022-12-03T05:59:30.600Z,35.25
2022-12-03T06:02:00.417Z,35.27
2022-12-03T06:04:30.748Z,35.28
2022-12-03T06:07:05.279Z,35.34
2022-12-03T06:09:37.652Z,35.40
2022-12-03T06:12:08.166Z,35.37
2022-12-03T06:14:36.302Z,35.34
2022-12-03T06:17:05.679Z,35.41
2022-12-03T06:19:34.950Z,35.47
2022-12-03T06:22:04.588Z,35.45
2022-12-03T06:24:33.676Z,35.46
2022-12-03T06:27:02.512Z,35.67
2022-12-03T06:29:32.693Z,35.70
2022-12-03T06:32:02.170Z,35.69
2022-12-03T06:34:32.972Z,35.63
2022-12-03T06:37:02.393Z,35.61
2022-12-03T06:39:30.610Z,36.21
2022-12-03T06:42:01.674Z,36.38
2022-12-03T06:44:31.278Z,36.47
2022-12-03T06:47:00.947Z,35.97
2022-12-03T06:49:30.716Z,35.98
2022-12-03T06:52:00.497Z,35.91
2022-12-03T06:54:30.373Z,35.88
2022-12-03T06:57:01.516Z,35.83
2022-12-03T06:59:34.580Z,35.89
2022-12-03T07:02:05.564Z,35.99
2022-12-03T07:04:34.383Z,36.05
2022-12-03T07:07:04.784Z,37.07
2022-12-03T07:09:33.903Z,36.59
2022-12-03T07:12:02.653Z,36.11
2022-12-03T07:14:32.384Z,35.99
2022-12-03T07:17:04.611Z,36.06
2022-12-03T07:19:33.721Z,36.17
2022-12-03T07:22:02.491Z,36.18
2022-12-03T07:24:31.051Z,36.22
2022-12-03T07:27:01.526Z,36.22
2022-12-03T07:29:30.687Z,36.19
2022-12-03T07:32:01.014Z,36.17
2022-12-03T07:34:32.426Z,36.20
2022-12-03T07:37:01.807Z,36.14
2022-12-03T07:39:31.376Z,36.13
2022-12-03T07:42:01.590Z,36.11
2022-12-03T07:44:32.876Z,36.09
2022-12-03T07:47:02.485Z,36.13
2022-12-03T07:49:32.563Z,36.11
2022-12-03T07:52:01.734Z,36.09
2022-12-03T07:54:30.375Z,36.15
2022-12-03T07:57:02.187Z,36.23
2022-12-03T07:59:30.729Z,36.94
2022-12-03T08:02:00.440Z,37.21
2022-12-03T08:04:31.444Z,37.32
2022-12-03T08:07:00.673Z,37.39
2022-12-03T08:09:32.619Z,37.63
2022-12-03T08:12:09.748Z,36.87
2022-12-03T08:14:39.543Z,36.61
2022-12-03T08:17:14.288Z,36.52
2022-12-03T08:19:48.444Z,36.52
2022-12-03T08:22:18.125Z,36.57
2022-12-03T08:24:46.800Z,36.49
2022-12-03T08:27:20.674Z,36.57
2022-12-03T08:29:52.740Z,36.60
2022-12-03T08:32:22.642Z,36.61
2022-12-03T08:34:52.615Z,36.61
2022-12-03T08:37:22.175Z,37.44
2022-12-03T08:39:58.289Z,36.91
2022-12-03T08:42:44.774Z,36.81
2022-12-03T08:45:41.098Z,37.02
2022-12-03T08:48:32.714Z,37.07
2022-12-03T08:51:28.436Z,37.06
2022-12-03T08:54:09.303Z,37.15
2022-12-03T08:56:40.755Z,37.16
2022-12-03T08:59:31.479Z,37.31
2022-12-03T09:02:01.539Z,37.16
2022-12-03T09:04:46.374Z,37.17
2022-12-03T09:07:16.133Z,37.25
2022-12-03T09:09:46.403Z,37.03
2022-12-03T09:12:17.146Z,36.95
2022-12-03T09:14:49.139Z,38.05
2022-12-03T09:17:21.366Z,38.19
2022-12-03T09:19:50.650Z,38.37
2022-12-03T09:22:19.727Z,37.85
2022-12-03T09:24:50.007Z,38.11
2022-12-03T09:27:22.171Z,38.09
2022-12-03T09:29:52.292Z,37.92
2022-12-03T09:32:22.254Z,37.61
2022-12-03T09:34:53.776Z,37.44
2022-12-03T09:37:24.998Z,37.68
2022-12-03T09:40:03.385Z,38.11
2022-12-03T09:42:34.315Z,38.29
2022-12-03T09:45:06.232Z,38.24
2022-12-03T09:47:36.832Z,38.33
2022-12-03T09:50:06.570Z,38.30
2022-12-03T09:52:36.405Z,37.88
2022-12-03T09:55:14.135Z,38.21
2022-12-03T09:57:44.404Z,38.52
2022-12-03T10:00:19.287Z,38.76
2022-12-03T10:02:52.645Z,38.83
2022-12-03T10:05:25.240Z,38.79
2022-12-03T10:08:09.035Z,38.83
2022-12-03T10:10:42.001Z,38.75
2022-12-03T10:13:25.495Z,38.72
2022-12-03T10:16:01.952Z,38.71
2022-12-03T10:18:41.502Z,38.72
2022-12-03T10:21:22.108Z,38.46
2022-12-03T10:24:11.063Z,38.48
2022-12-03T10:26:42.675Z,38.25
2022-12-03T10:29:18.566Z,38.18
2022-12-03T10:32:11.044Z,38.15
2022-12-03T10:34:42.372Z,38.45
2022-12-03T10:37:21.227Z,38.31
2022-12-03T10:40:02.400Z,38.37
2022-12-03T10:42:35.188Z,38.36
2022-12-03T10:45:18.128Z,38.49
2022-12-03T10:48:29.836Z,38.91
2022-12-03T10:51:23.058Z,38.90
2022-12-03T10:53:54.931Z,38.76
2022-12-03T10:56:30.825Z,38.71
2022-12-03T10:59:00.612Z,38.73
2022-12-03T11:01:32.673Z,39.44
2022-12-03T11:04:06.102Z,39.61
2022-12-03T11:06:34.609Z,39.68
2022-12-03T11:09:09.096Z,39.65
2022-12-03T11:11:39.242Z,39.59
2022-12-03T11:14:13.939Z,39.60
2022-12-03T11:16:49.359Z,39.63
2022-12-03T11:19:18.797Z,39.64
2022-12-03T11:22:06.831Z,39.36
2022-12-03T11:24:41.630Z,39.08
2022-12-03T11:27:10.860Z,39.31
2022-12-03T11:29:58.855Z,39.25
2022-12-03T11:32:40.669Z,39.00
2022-12-03T11:35:24.782Z,39.44
2022-12-03T11:38:35.484Z,39.02
2022-12-03T11:41:35.879Z,40.01
2022-12-03T11:44:31.020Z,39.29
2022-12-03T11:47:14.533Z,39.24
2022-12-03T11:49:49.070Z,39.85
2022-12-03T11:52:29.839Z,39.04
2022-12-03T11:55:06.646Z,39.01
2022-12-03T11:57:40.716Z,39.21
2022-12-03T12:00:35.214Z,39.78
2022-12-03T12:03:06.228Z,39.25
2022-12-03T12:05:34.919Z,39.20
2022-12-03T12:08:05.296Z,39.30
2022-12-03T12:10:44.955Z,39.54
2022-12-03T12:13:31.941Z,39.37
2022-12-03T12:16:06.733Z,39.06
2022-12-03T12:18:55.382Z,39.00
2022-12-03T12:21:45.014Z,39.14
2022-12-03T12:24:30.767Z,39.23
2022-12-03T12:27:08.670Z,39.17
2022-12-03T12:29:40.475Z,38.97
2022-12-03T12:32:11.248Z,39.16
2022-12-03T12:34:42.643Z,38.99
2022-12-03T12:37:36.797Z,39.58
2022-12-03T12:40:17.456Z,39.77
2022-12-03T12:43:10.008Z,40.40
2022-12-03T12:45:45.129Z,40.19
2022-12-03T12:48:34.816Z,39.80
2022-12-03T12:51:14.406Z,39.62
2022-12-03T12:53:43.995Z,39.55
2022-12-03T12:56:34.373Z,40.04
2022-12-03T12:59:16.661Z,39.93
2022-12-03T13:01:55.079Z,39.97
2022-12-03T13:04:31.491Z,40.76
2022-12-03T13:07:01.374Z,40.89
2022-12-03T13:09:35.406Z,41.01
2022-12-03T13:12:08.862Z,40.04
2022-12-03T13:14:38.960Z,39.89
2022-12-03T13:17:27.539Z,39.88
2022-12-03T13:20:07.842Z,40.69
2022-12-03T13:22:39.869Z,40.73
2022-12-03T13:28:34.725Z,41.54
2022-12-03T13:31:43.168Z,41.78
2022-12-03T13:34:21.620Z,41.59
2022-12-03T13:36:57.441Z,40.94
2022-12-03T13:39:38.179Z,40.28
2022-12-03T13:42:38.775Z,40.33
2022-12-03T13:45:17.092Z,40.33
2022-12-03T13:47:46.461Z,40.27
2022-12-03T13:50:37.479Z,40.46
2022-12-03T13:53:32.842Z,40.67
2022-12-03T13:56:07.054Z,40.60
2022-12-03T13:58:37.442Z,41.06
2022-12-03T14:01:07.068Z,41.04
2022-12-03T14:03:36.695Z,40.46
2022-12-03T14:06:06.321Z,40.36
2022-12-03T14:08:35.228Z,40.42
2022-12-03T14:11:05.238Z,40.86
2022-12-03T14:13:34.810Z,40.66
2022-12-03T14:16:04.335Z,40.67
2022-12-03T14:18:33.392Z,40.53
2022-12-03T14:21:02.683Z,40.94
2022-12-03T14:23:33.968Z,40.53
2022-12-03T14:26:03.116Z,40.55
2022-12-03T14:28:32.683Z,40.56
2022-12-03T14:31:02.680Z,40.56
2022-12-03T14:33:32.456Z,41.27
2022-12-03T14:36:05.204Z,40.75
2022-12-03T14:38:34.470Z,40.74
2022-12-03T14:41:02.724Z,40.70
2022-12-03T14:43:32.801Z,40.70
2022-12-03T14:46:02.201Z,40.99
2022-12-03T14:48:31.151Z,40.81
2022-12-03T14:51:00.969Z,40.84
2022-12-03T14:53:31.551Z,40.82
2022-12-03T14:56:00.897Z,40.81
2022-12-03T14:58:30.575Z,40.99
2022-12-03T15:01:00.634Z,41.51
2022-12-03T15:03:31.588Z,41.85
2022-12-03T15:06:01.668Z,42.04
2022-12-03T15:08:31.113Z,42.02
2022-12-03T15:11:00.495Z,42.06
2022-12-03T15:13:30.684Z,42.10
2022-12-03T15:16:00.811Z,42.15
2022-12-03T15:18:35.085Z,42.27
2022-12-03T15:21:04.984Z,42.37
2022-12-03T15:23:35.508Z,42.33
2022-12-03T15:26:06.220Z,42.26
2022-12-03T15:28:35.782Z,42.27
2022-12-03T15:31:06.304Z,42.29
2022-12-03T15:33:35.191Z,42.26
2022-12-03T15:36:06.065Z,42.27
2022-12-03T15:38:34.848Z,42.34
2022-12-03T15:41:22.202Z,42.45
2022-12-03T15:43:58.774Z,42.58
2022-12-03T15:46:34.484Z,42.54
2022-12-03T15:49:05.716Z,41.91
2022-12-03T15:51:37.343Z,41.88
2022-12-03T15:54:07.575Z,41.80
2022-12-03T15:56:38.665Z,42.49
2022-12-03T15:59:08.560Z,42.88
2022-12-03T16:01:38.359Z,42.65
2022-12-03T16:04:15.132Z,41.99
2022-12-03T16:06:54.610Z,41.99
2022-12-03T16:10:51.697Z,42.63
2022-12-03T16:14:02.217Z,42.50
2022-12-03T16:16:42.709Z,43.00
2022-12-03T16:19:22.200Z,43.10
2022-12-03T16:22:14.402Z,42.69
2022-12-03T16:24:53.733Z,42.47
2022-12-03T16:27:35.475Z,42.36
2022-12-03T16:30:49.560Z,43.02
2022-12-03T16:33:55.650Z,43.16
2022-12-03T16:40:23.242Z,43.96
2022-12-03T16:43:15.364Z,43.83
2022-12-03T16:47:43.205Z,43.84
2022-12-03T16:50:29.458Z,43.69
2022-12-03T16:54:15.387Z,45.00
2022-12-03T16:56:47.836Z,43.62
2022-12-03T16:59:18.580Z,43.06
2022-12-03T17:01:49.824Z,42.90
2022-12-03T17:04:19.328Z,42.83
2022-12-03T17:06:50.731Z,42.87
2022-12-03T17:09:21.026Z,42.99
2022-12-03T17:11:55.073Z,43.05
2022-12-03T17:14:33.589Z,43.11
2022-12-03T17:17:05.389Z,43.79
2022-12-03T17:19:38.414Z,43.77
2022-12-03T17:22:11.214Z,44.25
2022-12-03T17:24:42.126Z,43.54
2022-12-03T17:27:14.674Z,43.99
2022-12-03T17:29:46.018Z,44.10
2022-12-03T17:32:17.305Z,44.55
2022-12-03T17:34:49.778Z,44.74
2022-12-03T17:37:19.893Z,44.92
2022-12-03T17:39:51.409Z,44.89
2022-12-03T17:42:22.552Z,44.75
2022-12-03T17:44:59.027Z,44.73
2022-12-03T17:47:36.625Z,44.77
2022-12-03T17:50:09.392Z,45.00
2022-12-03T17:52:41.340Z,45.08
2022-12-03T17:55:14.564Z,44.93
2022-12-03T17:57:48.298Z,45.22
2022-12-03T18:00:29.787Z,45.55
2022-12-03T18:03:07.901Z,45.65
2022-12-03T18:05:38.205Z,45.70
2022-12-03T18:08:09.127Z,46.19
2022-12-03T18:10:39.270Z,46.20
2022-12-03T18:13:13.451Z,46.13
2022-12-03T18:15:48.913Z,45.91
2022-12-03T18:18:18.756Z,45.80
2022-12-03T18:20:52.556Z,46.10
2022-12-03T18:23:35.000Z,46.00
2022-12-03T18:26:09.090Z,45.79
2022-12-03T18:28:41.095Z,46.50
2022-12-03T18:31:23.231Z,46.17
2022-12-03T18:34:09.160Z,46.09
2022-12-03T18:36:55.224Z,45.53
2022-12-03T18:39:40.868Z,45.93
2022-12-03T18:42:23.839Z,46.17
2022-12-03T18:45:09.127Z,46.25
2022-12-03T18:47:46.302Z,46.34
2022-12-03T18:50:21.745Z,46.43
2022-12-03T18:53:07.754Z,46.38
2022-12-03T18:55:46.413Z,46.30
2022-12-03T18:58:18.244Z,46.29
2022-12-03T19:00:49.324Z,46.09
2022-12-03T19:03:21.902Z,46.30
2022-12-03T19:05:55.080Z,46.24
2022-12-03T19:08:42.743Z,46.25
2022-12-03T19:11:19.357Z,46.14
2022-12-03T19:13:54.666Z,45.70
2022-12-03T19:16:47.744Z,45.50
2022-12-03T19:19:22.503Z,45.40
2022-12-03T19:22:06.262Z,45.51
2022-12-03T19:24:38.296Z,45.45
2022-12-03T19:27:10.086Z,46.10
2022-12-03T19:29:41.887Z,45.80
2022-12-03T19:32:17.653Z,45.77
2022-12-03T19:34:53.312Z,45.75
2022-12-03T19:37:50.243Z,45.86
2022-12-03T19:40:22.651Z,45.74
2022-12-03T19:43:18.955Z,46.03
2022-12-03T19:45:51.315Z,45.80
2022-12-03T19:48:33.485Z,45.73
2022-12-03T19:51:34.059Z,45.80
2022-12-03T19:54:17.743Z,46.44
2022-12-03T19:56:53.192Z,46.22
2022-12-03T19:59:35.097Z,45.83
2022-12-03T20:02:14.557Z,46.09
2022-12-03T20:04:47.805Z,45.80
2022-12-03T20:16:54.495Z,47.21
2022-12-03T20:27:25.808Z,46.51
2022-12-03T20:42:13.491Z,46.73
2022-12-03T20:44:54.319Z,46.75
2022-12-03T20:47:34.705Z,46.74
2022-12-03T20:50:11.350Z,46.62
2022-12-03T20:53:16.661Z,46.65
2022-12-03T20:55:47.762Z,46.48
2022-12-03T20:58:22.011Z,46.38
2022-12-03T21:01:22.880Z,46.53
2022-12-03T21:04:10.913Z,45.75
2022-12-03T21:06:45.149Z,45.23
2022-12-03T21:09:19.163Z,45.19
2022-12-03T21:12:06.191Z,45.32
2022-12-03T21:14:37.646Z,45.15
2022-12-03T21:17:14.188Z,46.02
2022-12-03T21:19:49.447Z,45.19
2022-12-03T21:22:38.328Z,45.06
2022-12-03T21:25:20.423Z,45.04
2022-12-03T21:27:56.869Z,45.14
2022-12-03T21:30:46.056Z,45.12
2022-12-03T21:33:18.705Z,45.47
2022-12-03T21:36:01.367Z,45.35
2022-12-03T21:38:37.759Z,45.29
2022-12-03T21:41:09.496Z,45.13
2022-12-03T21:43:42.997Z,45.00
2022-12-03T21:47:11.392Z,44.98
2022-12-03T21:49:11.880Z,44.98
2022-12-03T21:51:46.956Z,44.94
2022-12-03T21:54:22.309Z,44.93
2022-12-03T21:57:13.848Z,44.94
2022-12-03T22:00:11.837Z,45.03
2022-12-03T22:02:48.101Z,44.94
2022-12-03T22:05:21.720Z,44.80
2022-12-03T22:08:11.854Z,44.80
2022-12-03T22:10:46.650Z,45.21
2022-12-03T22:13:18.075Z,44.59
2022-12-03T22:15:47.695Z,44.21
2022-12-03T22:18:22.481Z,44.02
2022-12-03T22:20:59.009Z,44.16
2022-12-03T22:23:36.687Z,44.08
2022-12-03T22:26:17.130Z,43.99
2022-12-03T22:28:49.417Z,43.79
2022-12-03T22:31:19.868Z,43.73
2022-12-03T22:33:53.634Z,43.70
2022-12-03T22:36:27.504Z,43.67
2022-12-03T22:39:31.254Z,44.59
2022-12-03T22:42:07.620Z,44.34
2022-12-03T22:44:39.320Z,44.12
2022-12-03T22:47:10.654Z,43.89
2022-12-03T22:49:41.663Z,43.56
2022-12-03T22:52:13.239Z,43.48
2022-12-03T22:54:49.001Z,43.36
2022-12-03T22:57:23.126Z,43.33
2022-12-03T23:00:09.934Z,43.23
2022-12-03T23:02:42.860Z,42.96
2022-12-03T23:05:18.680Z,42.84
2022-12-03T23:07:53.994Z,42.63
2022-12-03T23:11:02.779Z,42.76
2022-12-03T23:13:41.569Z,42.53
2022-12-03T23:16:33.239Z,42.52
2022-12-03T23:19:05.597Z,42.29
2022-12-03T23:21:39.620Z,42.16
2022-12-03T23:24:11.565Z,42.39
2022-12-03T23:26:45.367Z,42.71
2022-12-03T23:29:15.365Z,42.68
2022-12-03T23:31:53.724Z,42.12
2022-12-03T23:34:25.210Z,42.08
2022-12-03T23:37:06.321Z,41.99
2022-12-03T23:39:41.344Z,41.85
2022-12-03T23:42:14.995Z,42.01
2022-12-03T23:44:50.539Z,41.97
2022-12-03T23:47:27.311Z,41.82
2022-12-03T23:50:02.843Z,42.27
2022-12-03T23:52:37.041Z,42.64
2022-12-03T23:55:09.459Z,41.72
2022-12-03T23:57:42.813Z,41.57
